Denver, Colorado
Current Conditions -  °F | °C
As of 6:58 AM on Monday 20 Oct 2014 (Local Time) from KBKF Reporting Station
Few Clouds Few Clouds  
Wind Chill: 46°   Ceiling: Unl
Heat Index: 48°   Visibility: 10mi
Dew Point: 36°   Wind: 5mph
Humidity: 65%   Direction: 230°SW
Pressure: 30.18"   Gusts: NA
Location:  39.74°N, 104.99°W
Report Text: KBKF 201258Z 23004KT 10SM FEW220 09/02 A3018 RMK AO2A SLP183 T00870024
Loading
Personal Weather Stations






























Interactive Weather Map New forecast layout! Learn more

10-Day Weather Forecast

Advertisements
Track Severe Weather on mobile